sensor_id;sensor_type;location;lat;lon;timestamp;noise_LAeq;noise_LA_min;noise_LA_max;noise_LA01;noise_LA95
47109;Laerm;32856;51.422;6.794;2022-12-29T00:01:32;50.93;46.89;54.79;;
47109;Laerm;32856;51.422;6.794;2022-12-29T00:04:00;56.07;45.51;74.24;;
47109;Laerm;32856;51.422;6.794;2022-12-29T00:06:29;56.17;45.94;72.98;;
47109;Laerm;32856;51.422;6.794;2022-12-29T00:08:56;50.94;46.71;61.29;;
47109;Laerm;32856;51.422;6.794;2022-12-29T00:11:24;51.38;45.83;62.80;;
47109;Laerm;32856;51.422;6.794;2022-12-29T00:13:52;52.72;43.94;71.77;;
47109;Laerm;32856;51.422;6.794;2022-12-29T00:16:37;55.66;43.44;74.93;;
47109;Laerm;32856;51.422;6.794;2022-12-29T00:19:05;48.74;42.76;57.62;;
47109;Laerm;32856;51.422;6.794;2022-12-29T00:21:54;51.86;47.10;59.82;;
47109;Laerm;32856;51.422;6.794;2022-12-29T00:24:39;54.78;43.19;71.01;;
47109;Laerm;32856;51.422;6.794;2022-12-29T00:27:25;49.63;43.81;55.79;;
47109;Laerm;32856;51.422;6.794;2022-12-29T00:30:10;54.25;45.86;62.50;;
47109;Laerm;32856;51.422;6.794;2022-12-29T00:32:55;51.72;48.03;59.29;;
47109;Laerm;32856;51.422;6.794;2022-12-29T00:35:52;54.96;46.07;73.42;;
47109;Laerm;32856;51.422;6.794;2022-12-29T00:38:22;56.24;46.50;75.58;;
47109;Laerm;32856;51.422;6.794;2022-12-29T00:41:07;56.58;46.15;75.51;;
47109;Laerm;32856;51.422;6.794;2022-12-29T00:43:52;57.24;47.00;74.21;;
47109;Laerm;32856;51.422;6.794;2022-12-29T00:46:36;51.23;44.97;58.33;;
47109;Laerm;32856;51.422;6.794;2022-12-29T00:49:04;57.28;47.00;72.92;;
47109;Laerm;32856;51.422;6.794;2022-12-29T00:51:49;55.64;45.97;72.90;;
47109;Laerm;32856;51.422;6.794;2022-12-29T00:54:18;54.44;44.35;68.57;;
47109;Laerm;32856;51.422;6.794;2022-12-29T00:56:46;56.90;44.54;75.41;;
47109;Laerm;32856;51.422;6.794;2022-12-29T00:59:13;52.36;43.94;69.20;;
47109;Laerm;32856;51.422;6.794;2022-12-29T01:01:41;57.21;46.52;77.03;;
47109;Laerm;32856;51.422;6.794;2022-12-29T01:04:08;52.94;46.13;66.69;;
47109;Laerm;32856;51.422;6.794;2022-12-29T01:06:36;52.29;44.62;67.52;;
47109;Laerm;32856;51.422;6.794;2022-12-29T01:09:05;52.44;47.63;58.54;;
47109;Laerm;32856;51.422;6.794;2022-12-29T01:11:52;52.36;47.38;68.62;;
47109;Laerm;32856;51.422;6.794;2022-12-29T01:14:19;50.80;46.15;57.62;;
47109;Laerm;32856;51.422;6.794;2022-12-29T01:16:47;54.61;47.91;61.13;;
47109;Laerm;32856;51.422;6.794;2022-12-29T01:19:15;51.25;45.51;59.04;;
47109;Laerm;32856;51.422;6.794;2022-12-29T01:21:43;51.95;44.94;57.59;;
47109;Laerm;32856;51.422;6.794;2022-12-29T01:24:10;49.70;42.59;60.34;;
47109;Laerm;32856;51.422;6.794;2022-12-29T01:26:38;50.70;44.83;60.39;;
47109;Laerm;32856;51.422;6.794;2022-12-29T01:29:07;60.44;44.94;76.80;;
47109;Laerm;32856;51.422;6.794;2022-12-29T01:31:34;55.01;47.65;68.72;;
47109;Laerm;32856;51.422;6.794;2022-12-29T01:34:02;52.81;45.94;65.81;;
47109;Laerm;32856;51.422;6.794;2022-12-29T01:36:29;52.35;44.35;58.10;;
47109;Laerm;32856;51.422;6.794;2022-12-29T01:38:57;53.70;49.08;58.43;;
47109;Laerm;32856;51.422;6.794;2022-12-29T01:41:24;53.13;47.74;57.85;;
47109;Laerm;32856;51.422;6.794;2022-12-29T01:43:52;52.95;46.28;71.07;;
47109;Laerm;32856;51.422;6.794;2022-12-29T01:46:22;58.55;46.10;79.39;;
47109;Laerm;32856;51.422;6.794;2022-12-29T01:48:52;56.28;47.10;73.07;;
47109;Laerm;32856;51.422;6.794;2022-12-29T01:51:21;52.15;46.28;62.59;;
47109;Laerm;32856;51.422;6.794;2022-12-29T01:53:50;53.32;48.03;63.81;;
47109;Laerm;32856;51.422;6.794;2022-12-29T01:56:18;54.77;46.30;72.93;;
47109;Laerm;32856;51.422;6.794;2022-12-29T01:58:47;51.43;45.36;68.45;;
47109;Laerm;32856;51.422;6.794;2022-12-29T02:01:15;51.78;45.04;60.25;;
47109;Laerm;32856;51.422;6.794;2022-12-29T02:03:46;57.10;47.50;74.69;;
47109;Laerm;32856;51.422;6.794;2022-12-29T02:06:15;57.17;46.75;72.72;;
47109;Laerm;32856;51.422;6.794;2022-12-29T02:08:44;56.33;49.28;75.25;;
47109;Laerm;32856;51.422;6.794;2022-12-29T02:11:13;56.55;47.91;73.18;;
47109;Laerm;32856;51.422;6.794;2022-12-29T02:13:40;53.02;47.08;60.70;;
47109;Laerm;32856;51.422;6.794;2022-12-29T02:16:11;53.33;48.58;64.92;;
47109;Laerm;32856;51.422;6.794;2022-12-29T02:18:43;52.08;46.55;62.70;;
47109;Laerm;32856;51.422;6.794;2022-12-29T02:21:25;52.84;48.20;60.39;;
47109;Laerm;32856;51.422;6.794;2022-12-29T02:24:05;50.96;44.83;65.98;;
47109;Laerm;32856;51.422;6.794;2022-12-29T02:26:43;50.29;44.03;69.22;;
47109;Laerm;32856;51.422;6.794;2022-12-29T02:29:19;53.28;47.14;68.26;;
47109;Laerm;32856;51.422;6.794;2022-12-29T02:31:50;56.96;46.84;74.01;;
47109;Laerm;32856;51.422;6.794;2022-12-29T02:34:22;51.13;42.65;62.72;;
47109;Laerm;32856;51.422;6.794;2022-12-29T02:36:55;51.56;45.17;60.64;;
47109;Laerm;32856;51.422;6.794;2022-12-29T02:39:28;52.21;44.90;73.71;;
47109;Laerm;32856;51.422;6.794;2022-12-29T02:42:02;54.29;46.76;60.92;;
47109;Laerm;32856;51.422;6.794;2022-12-29T02:44:34;53.49;47.70;64.91;;
47109;Laerm;32856;51.422;6.794;2022-12-29T02:47:04;52.01;43.94;62.93;;
47109;Laerm;32856;51.422;6.794;2022-12-29T02:49:36;51.20;43.86;63.90;;
47109;Laerm;32856;51.422;6.794;2022-12-29T02:52:06;51.62;46.50;60.37;;
47109;Laerm;32856;51.422;6.794;2022-12-29T02:54:35;53.78;47.63;62.18;;
47109;Laerm;32856;51.422;6.794;2022-12-29T02:57:11;56.38;46.20;74.38;;
47109;Laerm;32856;51.422;6.794;2022-12-29T02:59:39;56.34;45.36;75.67;;
47109;Laerm;32856;51.422;6.794;2022-12-29T03:02:17;54.41;46.13;65.94;;
47109;Laerm;32856;51.422;6.794;2022-12-29T03:05:00;56.36;48.25;74.98;;
47109;Laerm;32856;51.422;6.794;2022-12-29T03:07:33;53.02;44.97;63.81;;
47109;Laerm;32856;51.422;6.794;2022-12-29T03:10:07;56.60;46.40;72.25;;
47109;Laerm;32856;51.422;6.794;2022-12-29T03:12:40;52.00;46.96;64.53;;
47109;Laerm;32856;51.422;6.794;2022-12-29T03:15:28;61.77;47.20;78.53;;
47109;Laerm;32856;51.422;6.794;2022-12-29T03:18:21;52.57;46.13;68.36;;
47109;Laerm;32856;51.422;6.794;2022-12-29T03:20:51;56.02;44.90;73.79;;
47109;Laerm;32856;51.422;6.794;2022-12-29T03:23:20;53.60;48.58;58.53;;
47109;Laerm;32856;51.422;6.794;2022-12-29T03:25:48;59.03;47.63;75.83;;
47109;Laerm;32856;51.422;6.794;2022-12-29T03:28:18;60.30;47.68;79.82;;
47109;Laerm;32856;51.422;6.794;2022-12-29T03:30:47;53.61;46.33;58.99;;
47109;Laerm;32856;51.422;6.794;2022-12-29T03:33:16;54.27;46.45;58.87;;
47109;Laerm;32856;51.422;6.794;2022-12-29T03:35:47;53.52;47.04;60.78;;
47109;Laerm;32856;51.422;6.794;2022-12-29T03:38:17;62.56;50.30;82.97;;
47109;Laerm;32856;51.422;6.794;2022-12-29T03:40:47;53.45;49.15;62.09;;
47109;Laerm;32856;51.422;6.794;2022-12-29T03:43:16;61.77;48.47;77.28;;
47109;Laerm;32856;51.422;6.794;2022-12-29T03:45:44;58.61;48.94;73.44;;
47109;Laerm;32856;51.422;6.794;2022-12-29T03:48:11;61.44;49.70;77.09;;
47109;Laerm;32856;51.422;6.794;2022-12-29T03:50:39;53.61;48.87;59.32;;
47109;Laerm;32856;51.422;6.794;2022-12-29T03:53:08;55.74;48.28;68.98;;
47109;Laerm;32856;51.422;6.794;2022-12-29T03:55:35;54.41;50.54;65.63;;
47109;Laerm;32856;51.422;6.794;2022-12-29T03:58:02;54.00;49.67;59.89;;
47109;Laerm;32856;51.422;6.794;2022-12-29T04:00:30;54.68;49.44;65.25;;
47109;Laerm;32856;51.422;6.794;2022-12-29T04:02:57;56.38;50.24;72.87;;
47109;Laerm;32856;51.422;6.794;2022-12-29T04:05:25;55.20;49.91;68.93;;
47109;Laerm;32856;51.422;6.794;2022-12-29T04:07:52;53.96;49.24;64.23;;
47109;Laerm;32856;51.422;6.794;2022-12-29T04:10:21;58.50;48.58;71.42;;
47109;Laerm;32856;51.422;6.794;2022-12-29T04:12:48;63.92;52.44;79.75;;
47109;Laerm;32856;51.422;6.794;2022-12-29T04:15:16;59.71;50.27;75.52;;
47109;Laerm;32856;51.422;6.794;2022-12-29T04:17:44;58.35;50.21;71.17;;
47109;Laerm;32856;51.422;6.794;2022-12-29T04:20:11;58.08;51.72;73.63;;
47109;Laerm;32856;51.422;6.794;2022-12-29T04:22:59;58.33;51.13;74.94;;
47109;Laerm;32856;51.422;6.794;2022-12-29T04:25:28;58.03;51.16;75.28;;
47109;Laerm;32856;51.422;6.794;2022-12-29T04:27:55;56.04;52.06;60.51;;
47109;Laerm;32856;51.422;6.794;2022-12-29T04:30:23;59.14;51.84;75.35;;
47109;Laerm;32856;51.422;6.794;2022-12-29T04:32:50;57.94;53.93;69.53;;
47109;Laerm;32856;51.422;6.794;2022-12-29T04:35:18;62.08;52.64;76.55;;
47109;Laerm;32856;51.422;6.794;2022-12-29T04:37:45;59.46;51.70;73.87;;
47109;Laerm;32856;51.422;6.794;2022-12-29T04:40:13;56.07;50.47;66.35;;
47109;Laerm;32856;51.422;6.794;2022-12-29T04:42:41;63.64;51.47;77.45;;
47109;Laerm;32856;51.422;6.794;2022-12-29T04:45:09;64.56;53.90;77.39;;
47109;Laerm;32856;51.422;6.794;2022-12-29T04:47:37;58.21;51.93;72.77;;
47109;Laerm;32856;51.422;6.794;2022-12-29T04:50:05;61.20;53.15;75.70;;
47109;Laerm;32856;51.422;6.794;2022-12-29T04:52:32;62.24;52.77;76.46;;
47109;Laerm;32856;51.422;6.794;2022-12-29T04:55:00;56.38;52.53;65.12;;
47109;Laerm;32856;51.422;6.794;2022-12-29T04:57:27;60.58;52.02;77.31;;
47109;Laerm;32856;51.422;6.794;2022-12-29T04:59:56;61.64;52.17;86.33;;
47109;Laerm;32856;51.422;6.794;2022-12-29T05:02:23;62.52;53.15;74.00;;
47109;Laerm;32856;51.422;6.794;2022-12-29T05:04:51;58.86;50.77;69.27;;
47109;Laerm;32856;51.422;6.794;2022-12-29T05:07:18;58.40;51.81;74.27;;
47109;Laerm;32856;51.422;6.794;2022-12-29T05:09:46;62.63;53.34;76.17;;
47109;Laerm;32856;51.422;6.794;2022-12-29T05:12:13;63.83;52.80;76.24;;
47109;Laerm;32856;51.422;6.794;2022-12-29T05:14:40;60.35;53.13;76.01;;
47109;Laerm;32856;51.422;6.794;2022-12-29T05:17:09;59.83;53.21;73.51;;
47109;Laerm;32856;51.422;6.794;2022-12-29T05:19:37;58.63;52.48;74.08;;
47109;Laerm;32856;51.422;6.794;2022-12-29T05:22:05;61.78;51.22;77.18;;
47109;Laerm;32856;51.422;6.794;2022-12-29T05:24:32;65.62;52.44;83.89;;
47109;Laerm;32856;51.422;6.794;2022-12-29T05:27:00;57.82;51.81;76.01;;
47109;Laerm;32856;51.422;6.794;2022-12-29T05:29:27;59.89;51.22;76.56;;
47109;Laerm;32856;51.422;6.794;2022-12-29T05:31:54;63.68;51.97;81.75;;
47109;Laerm;32856;51.422;6.794;2022-12-29T05:34:23;59.77;52.96;70.50;;
47109;Laerm;32856;51.422;6.794;2022-12-29T05:36:51;61.61;51.72;80.58;;
47109;Laerm;32856;51.422;6.794;2022-12-29T05:39:18;63.26;52.57;78.22;;
47109;Laerm;32856;51.422;6.794;2022-12-29T05:41:45;63.52;52.19;89.28;;
47109;Laerm;32856;51.422;6.794;2022-12-29T05:44:13;62.00;51.11;76.05;;
47109;Laerm;32856;51.422;6.794;2022-12-29T05:46:40;60.71;51.77;72.30;;
47109;Laerm;32856;51.422;6.794;2022-12-29T05:49:07;62.71;50.86;76.38;;
47109;Laerm;32856;51.422;6.794;2022-12-29T05:51:36;55.78;51.30;70.72;;
47109;Laerm;32856;51.422;6.794;2022-12-29T05:54:04;62.95;50.98;76.40;;
47109;Laerm;32856;51.422;6.794;2022-12-29T05:56:31;58.81;49.73;74.75;;
47109;Laerm;32856;51.422;6.794;2022-12-29T05:58:58;55.34;48.69;73.29;;
47109;Laerm;32856;51.422;6.794;2022-12-29T06:01:26;60.34;49.35;75.57;;
47109;Laerm;32856;51.422;6.794;2022-12-29T06:03:53;63.42;51.28;79.80;;
47109;Laerm;32856;51.422;6.794;2022-12-29T06:06:21;56.68;48.84;73.44;;
47109;Laerm;32856;51.422;6.794;2022-12-29T06:08:50;62.99;51.67;75.40;;
47109;Laerm;32856;51.422;6.794;2022-12-29T06:11:17;61.70;50.23;77.13;;
47109;Laerm;32856;51.422;6.794;2022-12-29T06:13:45;60.11;50.76;74.61;;
47109;Laerm;32856;51.422;6.794;2022-12-29T06:16:12;63.98;50.66;82.57;;
47109;Laerm;32856;51.422;6.794;2022-12-29T06:18:39;58.58;51.01;75.08;;
47109;Laerm;32856;51.422;6.794;2022-12-29T06:21:07;61.57;50.19;73.51;;
47109;Laerm;32856;51.422;6.794;2022-12-29T06:23:34;63.18;51.26;77.74;;
47109;Laerm;32856;51.422;6.794;2022-12-29T06:26:03;62.56;50.25;76.50;;
47109;Laerm;32856;51.422;6.794;2022-12-29T06:28:30;62.56;51.40;76.68;;
47109;Laerm;32856;51.422;6.794;2022-12-29T06:30:58;61.42;50.56;77.54;;
47109;Laerm;32856;51.422;6.794;2022-12-29T06:33:25;57.24;51.47;71.85;;
47109;Laerm;32856;51.422;6.794;2022-12-29T06:35:53;62.85;50.65;74.77;;
47109;Laerm;32856;51.422;6.794;2022-12-29T06:38:20;62.32;50.72;74.36;;
47109;Laerm;32856;51.422;6.794;2022-12-29T06:40:48;63.87;51.85;77.84;;
47109;Laerm;32856;51.422;6.794;2022-12-29T06:43:16;61.06;49.71;74.40;;
47109;Laerm;32856;51.422;6.794;2022-12-29T06:45:44;59.97;51.00;76.29;;
47109;Laerm;32856;51.422;6.794;2022-12-29T06:48:11;62.88;51.24;79.24;;
47109;Laerm;32856;51.422;6.794;2022-12-29T06:50:38;60.02;50.39;74.01;;
47109;Laerm;32856;51.422;6.794;2022-12-29T06:53:06;62.03;50.70;79.88;;
47109;Laerm;32856;51.422;6.794;2022-12-29T06:55:33;62.50;50.38;74.86;;
47109;Laerm;32856;51.422;6.794;2022-12-29T06:58:00;58.07;50.45;73.36;;
47109;Laerm;32856;51.422;6.794;2022-12-29T07:00:29;63.05;52.04;74.05;;
47109;Laerm;32856;51.422;6.794;2022-12-29T07:02:57;61.11;53.11;75.25;;
47109;Laerm;32856;51.422;6.794;2022-12-29T07:05:25;63.22;49.69;78.91;;
47109;Laerm;32856;51.422;6.794;2022-12-29T07:07:53;61.21;48.66;75.96;;
47109;Laerm;32856;51.422;6.794;2022-12-29T07:10:21;62.04;51.46;73.56;;
47109;Laerm;32856;51.422;6.794;2022-12-29T07:12:48;61.37;50.44;79.29;;
47109;Laerm;32856;51.422;6.794;2022-12-29T07:15:16;64.17;51.83;77.00;;
47109;Laerm;32856;51.422;6.794;2022-12-29T07:17:44;64.61;52.51;80.53;;
47109;Laerm;32856;51.422;6.794;2022-12-29T07:20:12;57.76;52.51;72.67;;
47109;Laerm;32856;51.422;6.794;2022-12-29T07:22:39;60.75;52.34;78.40;;
47109;Laerm;32856;51.422;6.794;2022-12-29T07:25:07;63.66;53.04;76.85;;
47109;Laerm;32856;51.422;6.794;2022-12-29T07:27:34;63.35;52.39;75.88;;
47109;Laerm;32856;51.422;6.794;2022-12-29T07:30:02;59.88;51.65;77.17;;
47109;Laerm;32856;51.422;6.794;2022-12-29T07:32:31;64.19;52.03;79.75;;
47109;Laerm;32856;51.422;6.794;2022-12-29T07:35:00;62.29;51.95;76.86;;
47109;Laerm;32856;51.422;6.794;2022-12-29T07:37:28;62.26;53.02;76.67;;
47109;Laerm;32856;51.422;6.794;2022-12-29T07:39:55;64.01;53.04;80.79;;
47109;Laerm;32856;51.422;6.794;2022-12-29T07:42:23;61.65;50.71;73.79;;
47109;Laerm;32856;51.422;6.794;2022-12-29T07:44:50;62.15;50.97;75.33;;
47109;Laerm;32856;51.422;6.794;2022-12-29T07:47:18;64.83;51.65;79.88;;
47109;Laerm;32856;51.422;6.794;2022-12-29T07:49:45;61.77;52.19;74.02;;
47109;Laerm;32856;51.422;6.794;2022-12-29T07:52:14;62.00;51.35;79.22;;
47109;Laerm;32856;51.422;6.794;2022-12-29T07:54:41;61.68;52.77;74.62;;
47109;Laerm;32856;51.422;6.794;2022-12-29T07:57:08;61.75;52.79;76.93;;
47109;Laerm;32856;51.422;6.794;2022-12-29T07:59:36;59.85;51.53;78.56;;
47109;Laerm;32856;51.422;6.794;2022-12-29T08:02:03;62.30;51.46;74.12;;
47109;Laerm;32856;51.422;6.794;2022-12-29T08:04:31;66.34;51.69;81.27;;
47109;Laerm;32856;51.422;6.794;2022-12-29T08:06:58;63.42;53.16;74.99;;
47109;Laerm;32856;51.422;6.794;2022-12-29T08:09:27;63.62;52.70;81.17;;
47109;Laerm;32856;51.422;6.794;2022-12-29T08:11:54;62.06;51.75;75.73;;
47109;Laerm;32856;51.422;6.794;2022-12-29T08:14:22;61.92;52.29;77.34;;
47109;Laerm;32856;51.422;6.794;2022-12-29T08:16:49;61.41;51.64;74.32;;
47109;Laerm;32856;51.422;6.794;2022-12-29T08:19:17;63.22;51.74;77.93;;
47109;Laerm;32856;51.422;6.794;2022-12-29T08:21:44;61.22;51.98;74.02;;
47109;Laerm;32856;51.422;6.794;2022-12-29T08:24:12;62.81;50.96;78.85;;
47109;Laerm;32856;51.422;6.794;2022-12-29T08:26:41;63.12;51.89;79.55;;
47109;Laerm;32856;51.422;6.794;2022-12-29T08:29:08;62.46;53.01;77.04;;
47109;Laerm;32856;51.422;6.794;2022-12-29T08:31:35;63.11;52.25;76.25;;
47109;Laerm;32856;51.422;6.794;2022-12-29T08:34:03;62.80;52.01;78.15;;
47109;Laerm;32856;51.422;6.794;2022-12-29T08:36:32;60.17;52.03;75.83;;
47109;Laerm;32856;51.422;6.794;2022-12-29T08:38:59;63.92;53.21;78.25;;
47109;Laerm;32856;51.422;6.794;2022-12-29T08:41:27;65.73;52.42;78.61;;
47109;Laerm;32856;51.422;6.794;2022-12-29T08:43:55;62.37;53.07;73.74;;
47109;Laerm;32856;51.422;6.794;2022-12-29T08:46:23;62.47;53.23;76.94;;
47109;Laerm;32856;51.422;6.794;2022-12-29T08:48:50;65.84;54.46;79.71;;
47109;Laerm;32856;51.422;6.794;2022-12-29T08:51:18;63.33;53.52;74.38;;
47109;Laerm;32856;51.422;6.794;2022-12-29T08:53:49;64.83;54.71;80.46;;
47109;Laerm;32856;51.422;6.794;2022-12-29T08:56:17;64.65;54.88;77.67;;
47109;Laerm;32856;51.422;6.794;2022-12-29T08:58:44;65.61;55.11;77.31;;
47109;Laerm;32856;51.422;6.794;2022-12-29T09:01:13;65.43;54.94;80.79;;
47109;Laerm;32856;51.422;6.794;2022-12-29T09:03:40;63.96;54.43;75.02;;
47109;Laerm;32856;51.422;6.794;2022-12-29T09:06:28;64.25;53.59;76.26;;
47109;Laerm;32856;51.422;6.794;2022-12-29T09:08:58;61.63;54.00;75.35;;
47109;Laerm;32856;51.422;6.794;2022-12-29T09:11:26;65.85;54.84;80.67;;
47109;Laerm;32856;51.422;6.794;2022-12-29T09:13:53;64.58;54.62;79.28;;
47109;Laerm;32856;51.422;6.794;2022-12-29T09:16:23;63.63;53.85;75.51;;
47109;Laerm;32856;51.422;6.794;2022-12-29T09:18:51;65.55;55.00;81.43;;
47109;Laerm;32856;51.422;6.794;2022-12-29T09:21:18;63.46;54.43;77.23;;
47109;Laerm;32856;51.422;6.794;2022-12-29T09:23:46;65.20;53.69;74.91;;
47109;Laerm;32856;51.422;6.794;2022-12-29T09:26:14;63.06;51.45;77.05;;
47109;Laerm;32856;51.422;6.794;2022-12-29T09:28:42;64.52;52.80;78.07;;
47109;Laerm;32856;51.422;6.794;2022-12-29T09:31:10;64.51;52.98;79.74;;
47109;Laerm;32856;51.422;6.794;2022-12-29T09:33:39;64.42;54.33;81.58;;
47109;Laerm;32856;51.422;6.794;2022-12-29T09:36:08;61.80;54.11;75.23;;
47109;Laerm;32856;51.422;6.794;2022-12-29T09:38:35;66.55;54.62;83.22;;
47109;Laerm;32856;51.422;6.794;2022-12-29T09:41:05;63.58;53.39;76.31;;
47109;Laerm;32856;51.422;6.794;2022-12-29T09:43:41;62.49;54.72;73.81;;
47109;Laerm;32856;51.422;6.794;2022-12-29T09:46:13;63.33;54.88;78.00;;
47109;Laerm;32856;51.422;6.794;2022-12-29T09:48:47;65.03;55.56;84.51;;
47109;Laerm;32856;51.422;6.794;2022-12-29T09:51:20;64.99;55.02;77.69;;
47109;Laerm;32856;51.422;6.794;2022-12-29T09:53:49;65.03;55.48;75.37;;
47109;Laerm;32856;51.422;6.794;2022-12-29T09:56:19;63.76;55.94;75.39;;
47109;Laerm;32856;51.422;6.794;2022-12-29T09:58:49;65.68;56.39;76.19;;
47109;Laerm;32856;51.422;6.794;2022-12-29T10:01:21;63.66;55.00;74.59;;
47109;Laerm;32856;51.422;6.794;2022-12-29T10:03:54;64.51;54.29;81.69;;
47109;Laerm;32856;51.422;6.794;2022-12-29T10:06:23;63.40;53.77;73.01;;
47109;Laerm;32856;51.422;6.794;2022-12-29T10:08:54;66.96;55.22;79.66;;
47109;Laerm;32856;51.422;6.794;2022-12-29T10:11:28;63.45;53.73;76.87;;
47109;Laerm;32856;51.422;6.794;2022-12-29T10:14:03;64.32;54.74;76.12;;
47109;Laerm;32856;51.422;6.794;2022-12-29T10:16:40;64.58;54.57;78.61;;
47109;Laerm;32856;51.422;6.794;2022-12-29T10:19:15;66.72;56.27;77.26;;
47109;Laerm;32856;51.422;6.794;2022-12-29T10:21:50;65.87;55.12;90.49;;
47109;Laerm;32856;51.422;6.794;2022-12-29T10:24:22;61.70;54.44;77.73;;
47109;Laerm;32856;51.422;6.794;2022-12-29T10:26:50;65.10;53.73;77.63;;
47109;Laerm;32856;51.422;6.794;2022-12-29T10:29:19;67.09;55.53;81.88;;
47109;Laerm;32856;51.422;6.794;2022-12-29T10:31:47;64.48;52.84;76.60;;
47109;Laerm;32856;51.422;6.794;2022-12-29T10:34:20;64.47;53.79;78.24;;
47109;Laerm;32856;51.422;6.794;2022-12-29T10:36:49;64.53;54.28;81.34;;
47109;Laerm;32856;51.422;6.794;2022-12-29T10:39:20;65.22;55.24;77.09;;
47109;Laerm;32856;51.422;6.794;2022-12-29T10:41:51;66.63;55.28;80.45;;
47109;Laerm;32856;51.422;6.794;2022-12-29T10:44:21;64.85;55.39;82.02;;
47109;Laerm;32856;51.422;6.794;2022-12-29T10:46:51;64.94;54.33;77.75;;
47109;Laerm;32856;51.422;6.794;2022-12-29T10:49:23;64.24;55.75;76.98;;
47109;Laerm;32856;51.422;6.794;2022-12-29T10:51:52;66.09;56.48;82.72;;
47109;Laerm;32856;51.422;6.794;2022-12-29T10:54:23;63.92;54.38;77.53;;
47109;Laerm;32856;51.422;6.794;2022-12-29T10:56:54;65.16;54.03;79.78;;
47109;Laerm;32856;51.422;6.794;2022-12-29T10:59:24;62.53;53.94;76.10;;
47109;Laerm;32856;51.422;6.794;2022-12-29T11:01:56;65.42;54.52;77.94;;
47109;Laerm;32856;51.422;6.794;2022-12-29T11:04:30;64.69;55.81;84.35;;
47109;Laerm;32856;51.422;6.794;2022-12-29T11:06:59;64.65;54.98;75.43;;
47109;Laerm;32856;51.422;6.794;2022-12-29T11:09:28;64.88;55.77;77.14;;
47109;Laerm;32856;51.422;6.794;2022-12-29T11:12:17;65.69;53.75;76.71;;
47109;Laerm;32856;51.422;6.794;2022-12-29T11:14:45;65.29;54.61;79.54;;
47109;Laerm;32856;51.422;6.794;2022-12-29T11:17:14;66.08;57.03;75.75;;
47109;Laerm;32856;51.422;6.794;2022-12-29T11:19:43;64.04;55.11;75.60;;
47109;Laerm;32856;51.422;6.794;2022-12-29T11:22:19;66.44;55.31;77.52;;
47109;Laerm;32856;51.422;6.794;2022-12-29T11:24:48;66.72;54.48;89.28;;
47109;Laerm;32856;51.422;6.794;2022-12-29T11:27:16;63.10;54.56;74.66;;
47109;Laerm;32856;51.422;6.794;2022-12-29T11:29:44;62.82;53.13;74.95;;
47109;Laerm;32856;51.422;6.794;2022-12-29T11:32:16;63.35;55.27;76.06;;
47109;Laerm;32856;51.422;6.794;2022-12-29T11:34:50;64.74;54.40;77.59;;
47109;Laerm;32856;51.422;6.794;2022-12-29T11:37:18;64.65;53.81;76.95;;
47109;Laerm;32856;51.422;6.794;2022-12-29T11:39:49;64.80;52.85;79.77;;
47109;Laerm;32856;51.422;6.794;2022-12-29T11:42:19;63.25;53.02;73.36;;
47109;Laerm;32856;51.422;6.794;2022-12-29T11:44:49;64.28;54.34;84.56;;
47109;Laerm;32856;51.422;6.794;2022-12-29T11:47:25;63.28;54.00;73.48;;
47109;Laerm;32856;51.422;6.794;2022-12-29T11:49:55;65.57;55.16;83.94;;
47109;Laerm;32856;51.422;6.794;2022-12-29T11:52:24;64.88;53.99;76.33;;
47109;Laerm;32856;51.422;6.794;2022-12-29T11:54:53;64.08;54.23;76.35;;
47109;Laerm;32856;51.422;6.794;2022-12-29T11:57:22;64.85;54.03;80.76;;
47109;Laerm;32856;51.422;6.794;2022-12-29T11:59:50;63.26;52.57;74.72;;
47109;Laerm;32856;51.422;6.794;2022-12-29T12:02:37;66.90;54.43;83.26;;
47109;Laerm;32856;51.422;6.794;2022-12-29T12:05:12;63.49;54.26;76.73;;
47109;Laerm;32856;51.422;6.794;2022-12-29T12:07:41;65.63;54.35;75.46;;
47109;Laerm;32856;51.422;6.794;2022-12-29T12:10:12;64.98;54.33;78.56;;
47109;Laerm;32856;51.422;6.794;2022-12-29T12:12:44;62.71;54.11;73.87;;
47109;Laerm;32856;51.422;6.794;2022-12-29T12:15:22;65.94;53.69;80.75;;
47109;Laerm;32856;51.422;6.794;2022-12-29T12:17:53;62.28;53.94;74.51;;
47109;Laerm;32856;51.422;6.794;2022-12-29T12:20:25;62.84;52.96;75.51;;
47109;Laerm;32856;51.422;6.794;2022-12-29T12:22:58;62.42;54.27;73.95;;
47109;Laerm;32856;51.422;6.794;2022-12-29T12:25:28;64.53;54.61;76.54;;
47109;Laerm;32856;51.422;6.794;2022-12-29T12:27:59;64.08;53.79;73.97;;
47109;Laerm;32856;51.422;6.794;2022-12-29T12:30:28;65.95;55.28;75.62;;
47109;Laerm;32856;51.422;6.794;2022-12-29T12:32:59;62.75;53.45;74.05;;
47109;Laerm;32856;51.422;6.794;2022-12-29T12:35:31;65.29;54.14;78.02;;
47109;Laerm;32856;51.422;6.794;2022-12-29T12:38:11;63.56;53.14;74.33;;
47109;Laerm;32856;51.422;6.794;2022-12-29T12:40:48;65.59;54.83;76.73;;
47109;Laerm;32856;51.422;6.794;2022-12-29T12:43:29;64.30;53.22;76.42;;
47109;Laerm;32856;51.422;6.794;2022-12-29T12:46:01;61.72;52.29;76.90;;
47109;Laerm;32856;51.422;6.794;2022-12-29T12:48:44;65.06;53.29;77.41;;
47109;Laerm;32856;51.422;6.794;2022-12-29T12:51:18;62.93;53.09;75.30;;
47109;Laerm;32856;51.422;6.794;2022-12-29T12:53:50;64.85;54.20;76.38;;
47109;Laerm;32856;51.422;6.794;2022-12-29T12:56:37;63.85;52.83;76.78;;
47109;Laerm;32856;51.422;6.794;2022-12-29T12:59:10;65.81;52.42;81.75;;
47109;Laerm;32856;51.422;6.794;2022-12-29T13:01:42;64.72;53.42;76.72;;
47109;Laerm;32856;51.422;6.794;2022-12-29T13:04:27;62.77;53.63;72.99;;
47109;Laerm;32856;51.422;6.794;2022-12-29T13:07:04;62.23;54.32;74.12;;
47109;Laerm;32856;51.422;6.794;2022-12-29T13:09:42;64.54;55.41;82.19;;
47109;Laerm;32856;51.422;6.794;2022-12-29T13:12:16;63.52;54.56;77.76;;
47109;Laerm;32856;51.422;6.794;2022-12-29T13:14:50;63.69;53.24;79.04;;
47109;Laerm;32856;51.422;6.794;2022-12-29T13:17:20;62.07;53.30;75.40;;
47109;Laerm;32856;51.422;6.794;2022-12-29T13:19:53;63.60;53.24;74.50;;
47109;Laerm;32856;51.422;6.794;2022-12-29T13:22:28;65.03;54.13;77.92;;
47109;Laerm;32856;51.422;6.794;2022-12-29T13:25:02;63.62;52.87;76.23;;
47109;Laerm;32856;51.422;6.794;2022-12-29T13:27:35;64.65;53.15;75.36;;
47109;Laerm;32856;51.422;6.794;2022-12-29T13:30:08;62.97;53.57;75.38;;
47109;Laerm;32856;51.422;6.794;2022-12-29T13:32:41;64.10;53.29;74.47;;
47109;Laerm;32856;51.422;6.794;2022-12-29T13:35:14;62.64;53.44;74.10;;
47109;Laerm;32856;51.422;6.794;2022-12-29T13:37:47;65.36;54.18;75.25;;
47109;Laerm;32856;51.422;6.794;2022-12-29T13:40:16;63.14;52.37;74.69;;
47109;Laerm;32856;51.422;6.794;2022-12-29T13:42:45;65.21;53.34;78.00;;
47109;Laerm;32856;51.422;6.794;2022-12-29T13:45:15;62.63;53.43;73.76;;
47109;Laerm;32856;51.422;6.794;2022-12-29T13:47:44;65.25;52.72;76.49;;
47109;Laerm;32856;51.422;6.794;2022-12-29T13:50:14;64.62;53.59;74.31;;
47109;Laerm;32856;51.422;6.794;2022-12-29T13:52:43;63.08;53.61;74.83;;
47109;Laerm;32856;51.422;6.794;2022-12-29T13:55:20;61.78;52.12;74.33;;
47109;Laerm;32856;51.422;6.794;2022-12-29T13:57:48;64.56;53.13;81.75;;
47109;Laerm;32856;51.422;6.794;2022-12-29T14:00:19;64.30;53.40;77.35;;
47109;Laerm;32856;51.422;6.794;2022-12-29T14:02:54;63.76;52.29;75.56;;